createdAt,value
2022-12-01T00:01:41.236Z,18.57
2022-12-01T00:04:09.669Z,17.90
2022-12-01T00:06:39.637Z,18.27
2022-12-01T00:09:27.626Z,18.80
2022-12-01T00:11:56.412Z,18.83
2022-12-01T00:14:24.849Z,19.37
2022-12-01T00:16:53.501Z,20.30
2022-12-01T00:19:25.793Z,19.67
2022-12-01T00:21:55.706Z,19.77
2022-12-01T00:24:25.314Z,19.30
2022-12-01T00:26:54.016Z,18.53
2022-12-01T00:29:23.104Z,20.47
2022-12-01T00:31:51.747Z,19.13
2022-12-01T00:34:24.321Z,18.57
2022-12-01T00:36:53.812Z,19.70
2022-12-01T00:39:23.681Z,20.37
2022-12-01T00:41:52.259Z,20.57
2022-12-01T00:44:21.768Z,19.97
2022-12-01T00:46:50.705Z,18.47
2022-12-01T00:49:19.592Z,18.87
2022-12-01T00:51:48.352Z,18.97
2022-12-01T00:54:17.493Z,18.97
2022-12-01T00:56:47.580Z,19.77
2022-12-01T00:59:15.885Z,18.70
2022-12-01T01:01:45.690Z,19.30
2022-12-01T01:04:14.416Z,19.37
2022-12-01T01:06:43.719Z,18.83
2022-12-01T01:09:16.948Z,18.80
2022-12-01T01:11:56.213Z,21.07
2022-12-01T01:14:25.459Z,20.33
2022-12-01T01:16:57.659Z,20.37
2022-12-01T01:19:36.355Z,19.70
2022-12-01T01:22:05.790Z,19.97
2022-12-01T01:24:36.671Z,20.07
2022-12-01T01:27:11.959Z,18.77
2022-12-01T01:29:48.612Z,18.37
2022-12-01T01:32:17.949Z,20.47
2022-12-01T01:34:50.567Z,19.30
2022-12-01T01:37:20.970Z,21.20
2022-12-01T01:39:54.430Z,19.70
2022-12-01T01:42:25.314Z,20.77
2022-12-01T01:45:01.721Z,21.57
2022-12-01T01:47:34.378Z,20.03
2022-12-01T01:50:09.218Z,20.10
2022-12-01T01:52:44.962Z,19.70
2022-12-01T01:55:15.520Z,20.47
2022-12-01T01:57:52.296Z,20.93
2022-12-01T02:00:22.850Z,20.63
2022-12-01T02:02:58.296Z,19.93
2022-12-01T02:05:36.627Z,20.90
2022-12-01T02:08:12.539Z,21.63
2022-12-01T02:10:57.232Z,21.30
2022-12-01T02:13:34.716Z,21.90
2022-12-01T02:16:20.673Z,20.87
2022-12-01T02:19:11.057Z,22.83
2022-12-01T02:22:09.271Z,23.53
2022-12-01T02:25:18.070Z,23.60
2022-12-01T02:28:08.633Z,24.13
2022-12-01T02:30:42.249Z,23.20
2022-12-01T02:33:19.096Z,25.73
2022-12-01T02:35:53.490Z,25.50
2022-12-01T02:38:34.392Z,26.60
2022-12-01T02:41:19.862Z,26.97
2022-12-01T02:44:12.625Z,25.50
2022-12-01T02:47:05.989Z,26.50
2022-12-01T02:49:56.304Z,29.27
2022-12-01T02:52:44.658Z,29.33
2022-12-01T02:55:32.868Z,29.57
2022-12-01T02:58:01.767Z,32.20
2022-12-01T03:00:32.445Z,30.77
2022-12-01T03:03:25.182Z,32.47
2022-12-01T03:06:05.828Z,33.40
2022-12-01T03:08:46.243Z,33.53
2022-12-01T03:11:27.902Z,31.30
2022-12-01T03:14:09.138Z,32.17
2022-12-01T03:16:48.976Z,31.93
2022-12-01T03:19:27.625Z,33.70
2022-12-01T03:22:01.128Z,31.43
2022-12-01T03:24:33.148Z,32.83
2022-12-01T03:27:04.083Z,31.47
2022-12-01T03:29:36.774Z,34.00
2022-12-01T03:32:09.294Z,33.43
2022-12-01T03:34:43.853Z,34.53
2022-12-01T03:37:18.009Z,32.07
2022-12-01T03:39:49.318Z,32.30
2022-12-01T03:42:22.039Z,33.23
2022-12-01T03:44:53.704Z,32.43
2022-12-01T03:47:25.233Z,31.53
2022-12-01T03:49:56.479Z,29.87
2022-12-01T03:52:32.724Z,31.63
2022-12-01T03:55:11.931Z,34.20
2022-12-01T03:57:47.078Z,31.33
2022-12-01T04:00:17.076Z,31.13
2022-12-01T04:02:45.836Z,29.97
2022-12-01T04:05:16.748Z,31.10
2022-12-01T04:07:47.990Z,31.03
2022-12-01T04:10:17.637Z,29.10
2022-12-01T04:12:46.050Z,30.80
2022-12-01T04:15:16.880Z,31.97
2022-12-01T04:17:45.800Z,31.27
2022-12-01T04:20:17.335Z,31.47
2022-12-01T04:22:46.497Z,30.13
2022-12-01T04:25:15.120Z,32.17
2022-12-01T04:27:43.302Z,30.80
2022-12-01T04:30:13.307Z,29.90
2022-12-01T04:32:45.154Z,29.87
2022-12-01T04:35:15.504Z,29.60
2022-12-01T04:37:44.477Z,26.47
2022-12-01T04:40:13.434Z,28.63
2022-12-01T04:42:41.882Z,28.03
2022-12-01T04:45:11.520Z,27.10
2022-12-01T04:47:40.101Z,28.03
2022-12-01T04:50:09.231Z,26.00
2022-12-01T04:52:39.539Z,27.00
2022-12-01T04:55:08.455Z,29.03
2022-12-01T04:57:37.143Z,26.47
2022-12-01T05:00:12.974Z,28.37
2022-12-01T05:02:43.284Z,26.93
2022-12-01T05:05:12.315Z,27.00
2022-12-01T05:07:42.490Z,29.03
2022-12-01T05:10:13.612Z,31.83
2022-12-01T05:12:42.705Z,26.77
2022-12-01T05:15:11.473Z,27.70
2022-12-01T05:17:40.423Z,26.50
2022-12-01T05:20:27.254Z,28.60
2022-12-01T05:23:05.428Z,28.40
2022-12-01T05:25:34.652Z,30.67
2022-12-01T05:28:06.496Z,29.70
2022-12-01T05:30:34.764Z,31.00
2022-12-01T05:33:03.412Z,33.20
2022-12-01T05:35:33.655Z,33.90
2022-12-01T05:38:07.795Z,30.70
2022-12-01T05:40:37.444Z,32.13
2022-12-01T05:43:06.971Z,33.53
2022-12-01T05:45:35.822Z,39.43
2022-12-01T05:48:04.694Z,31.97
2022-12-01T05:50:33.107Z,30.93
2022-12-01T05:53:02.920Z,31.87
2022-12-01T05:55:31.269Z,30.90
2022-12-01T05:57:59.660Z,30.27
2022-12-01T06:00:27.949Z,26.40
2022-12-01T06:02:56.328Z,33.53
2022-12-01T06:05:25.002Z,29.43
2022-12-01T06:07:53.569Z,28.77
2022-12-01T06:10:23.232Z,27.57
2022-12-01T06:12:51.713Z,30.90
2022-12-01T06:15:20.077Z,30.93
2022-12-01T06:17:48.531Z,28.73
2022-12-01T06:20:17.108Z,26.77
2022-12-01T06:22:45.997Z,25.43
2022-12-01T06:25:17.120Z,26.87
2022-12-01T06:27:47.160Z,30.33
2022-12-01T06:30:16.308Z,27.33
2022-12-01T06:32:45.058Z,25.73
2022-12-01T06:35:13.351Z,25.37
2022-12-01T06:37:42.171Z,23.57
2022-12-01T06:40:11.862Z,23.57
2022-12-01T06:42:40.295Z,22.83
2022-12-01T06:45:12.046Z,22.23
2022-12-01T06:47:40.821Z,22.67
2022-12-01T06:50:11.771Z,21.87
2022-12-01T06:52:40.210Z,21.83
2022-12-01T06:55:09.429Z,21.40
2022-12-01T06:57:39.225Z,21.23
2022-12-01T07:00:11.277Z,22.47
2022-12-01T07:02:40.362Z,21.27
2022-12-01T07:05:09.295Z,22.73
2022-12-01T07:07:39.236Z,22.53
2022-12-01T07:10:10.262Z,24.10
2022-12-01T07:12:39.107Z,24.63
2022-12-01T07:15:10.190Z,23.73
2022-12-01T07:17:40.407Z,24.37
2022-12-01T07:20:11.291Z,23.07
2022-12-01T07:22:43.064Z,22.67
2022-12-01T07:25:11.812Z,22.97
2022-12-01T07:27:40.820Z,24.03
2022-12-01T07:30:11.754Z,24.50
2022-12-01T07:32:41.112Z,22.67
2022-12-01T07:35:10.178Z,23.50
2022-12-01T07:37:38.537Z,22.73
2022-12-01T07:40:08.366Z,22.37
2022-12-01T07:42:36.829Z,21.43
2022-12-01T07:45:06.366Z,24.43
2022-12-01T07:47:36.832Z,22.10
2022-12-01T07:50:06.106Z,24.47
2022-12-01T07:52:34.888Z,21.37
2022-12-01T07:55:07.628Z,22.97
2022-12-01T07:57:36.913Z,21.63
2022-12-01T08:00:07.798Z,22.10
2022-12-01T08:02:39.831Z,22.33
2022-12-01T08:05:08.891Z,21.60
2022-12-01T08:07:37.280Z,21.37
2022-12-01T08:10:06.974Z,19.83
2022-12-01T08:12:35.619Z,22.13
2022-12-01T08:15:04.747Z,20.40
2022-12-01T08:17:33.043Z,20.87
2022-12-01T08:20:03.088Z,21.00
2022-12-01T08:22:31.264Z,20.90
2022-12-01T08:24:59.726Z,22.13
2022-12-01T08:27:28.536Z,20.43
2022-12-01T08:29:56.968Z,22.27
2022-12-01T08:32:25.875Z,21.90
2022-12-01T08:34:54.301Z,21.60
2022-12-01T08:37:23.864Z,20.93
2022-12-01T08:39:52.429Z,20.30
2022-12-01T08:42:21.099Z,18.60
2022-12-01T08:44:49.823Z,20.57
2022-12-01T08:47:18.989Z,20.10
2022-12-01T08:49:47.908Z,20.57
2022-12-01T08:52:16.565Z,20.20
2022-12-01T08:54:46.999Z,18.47
2022-12-01T08:57:16.023Z,17.90
2022-12-01T08:59:45.146Z,18.57
2022-12-01T09:02:15.633Z,18.63
2022-12-01T09:04:44.541Z,19.83
2022-12-01T09:07:15.092Z,18.80
2022-12-01T09:09:44.293Z,18.60
2022-12-01T09:12:14.366Z,18.93
2022-12-01T09:14:48.090Z,18.47
2022-12-01T09:17:16.978Z,19.93
2022-12-01T09:19:46.004Z,20.90
2022-12-01T09:22:14.357Z,20.50
2022-12-01T09:24:42.739Z,19.67
2022-12-01T09:27:13.169Z,21.03
2022-12-01T09:29:41.492Z,21.23
2022-12-01T09:32:09.731Z,20.53
2022-12-01T09:34:38.184Z,19.90
2022-12-01T09:37:06.880Z,18.33
2022-12-01T09:39:35.936Z,21.07
2022-12-01T09:42:09.444Z,20.73
2022-12-01T09:44:44.073Z,19.10
2022-12-01T09:47:19.175Z,20.13
2022-12-01T09:49:54.398Z,19.90
2022-12-01T09:52:24.798Z,17.80
2022-12-01T09:54:55.279Z,18.60
2022-12-01T09:57:31.081Z,18.47
2022-12-01T10:00:04.034Z,18.67
2022-12-01T10:02:38.787Z,17.27
2022-12-01T10:05:14.340Z,17.40
2022-12-01T10:07:48.079Z,19.17
2022-12-01T10:10:19.825Z,19.50
2022-12-01T10:12:48.405Z,19.63
2022-12-01T10:15:28.389Z,22.57
2022-12-01T10:18:06.132Z,18.77
2022-12-01T10:20:42.704Z,18.43
2022-12-01T10:23:36.431Z,19.90
2022-12-01T10:26:14.233Z,19.07
2022-12-01T10:29:03.885Z,17.57
2022-12-01T10:31:39.478Z,19.80
2022-12-01T10:34:12.205Z,21.47
2022-12-01T10:36:40.884Z,18.20
2022-12-01T10:39:17.126Z,20.67
2022-12-01T10:41:47.823Z,19.60
2022-12-01T10:44:20.544Z,21.50
2022-12-01T10:46:53.567Z,20.03
2022-12-01T10:49:35.105Z,21.40
2022-12-01T10:52:03.817Z,24.27
2022-12-01T10:54:35.156Z,18.73
2022-12-01T10:57:04.976Z,20.10
2022-12-01T10:59:40.191Z,19.70
2022-12-01T11:02:19.023Z,19.93
2022-12-01T11:04:53.486Z,20.47
2022-12-01T11:07:24.911Z,20.43
2022-12-01T11:10:06.484Z,20.70
2022-12-01T11:12:35.618Z,21.63
2022-12-01T11:15:05.783Z,20.23
2022-12-01T11:17:39.750Z,21.63
2022-12-01T11:20:28.496Z,19.30
2022-12-01T11:23:30.013Z,19.33
2022-12-01T11:26:13.667Z,18.53
2022-12-01T11:28:52.347Z,20.60
2022-12-01T11:31:25.674Z,21.60
2022-12-01T11:33:57.823Z,21.77
2022-12-01T11:36:32.425Z,21.67
2022-12-01T11:39:02.788Z,20.17
2022-12-01T11:41:35.119Z,21.67
2022-12-01T11:44:22.467Z,22.27
2022-12-01T11:47:21.632Z,26.33
2022-12-01T11:49:49.139Z,24.07
2022-12-01T11:52:27.249Z,24.10
2022-12-01T11:54:57.750Z,22.40
2022-12-01T11:57:34.114Z,23.83
2022-12-01T12:00:07.040Z,25.27
2022-12-01T12:02:43.676Z,23.73
2022-12-01T12:05:45.675Z,23.53
2022-12-01T12:08:22.627Z,22.53
2022-12-01T12:11:01.492Z,22.77
2022-12-01T12:14:02.492Z,22.77
2022-12-01T12:16:42.785Z,24.93
2022-12-01T12:19:33.988Z,22.73
2022-12-01T12:22:25.219Z,22.53
2022-12-01T12:25:05.962Z,23.60
2022-12-01T12:27:48.169Z,25.10
2022-12-01T12:30:24.447Z,25.83
2022-12-01T12:33:23.844Z,27.20
2022-12-01T12:36:02.243Z,25.80
2022-12-01T12:38:48.628Z,24.63
2022-12-01T12:41:30.119Z,25.77
2022-12-01T12:44:11.279Z,27.70
2022-12-01T12:46:49.192Z,26.90
2022-12-01T12:49:28.484Z,24.97
2022-12-01T12:52:08.479Z,26.17
2022-12-01T12:54:46.106Z,25.30
2022-12-01T12:57:22.062Z,28.00
2022-12-01T12:59:57.754Z,25.90
2022-12-01T13:02:32.527Z,31.83
2022-12-01T13:05:05.930Z,27.03
2022-12-01T13:07:40.199Z,25.73
2022-12-01T13:10:22.798Z,25.83
2022-12-01T13:12:58.232Z,30.17
2022-12-01T13:15:28.299Z,29.27
2022-12-01T13:18:00.297Z,27.77
2022-12-01T13:20:32.082Z,27.53
2022-12-01T13:23:02.151Z,28.30
2022-12-01T13:25:38.203Z,23.97
2022-12-01T13:28:14.706Z,27.47
2022-12-01T13:30:43.054Z,28.97
2022-12-01T13:33:17.646Z,25.33
2022-12-01T13:36:29.991Z,27.67
2022-12-01T13:38:58.195Z,27.40
2022-12-01T13:41:30.363Z,28.40
2022-12-01T13:44:04.768Z,28.10
2022-12-01T13:46:51.520Z,26.70
2022-12-01T13:49:48.073Z,27.60
2022-12-01T13:52:29.904Z,27.70
2022-12-01T13:55:28.007Z,27.47
2022-12-01T13:58:24.864Z,27.80
2022-12-01T14:00:53.348Z,27.87
2022-12-01T14:03:40.950Z,26.93
2022-12-01T14:06:22.083Z,28.10
2022-12-01T14:08:52.808Z,27.80
2022-12-01T14:11:26.723Z,28.03
2022-12-01T14:13:58.968Z,29.17
2022-12-01T14:16:48.158Z,27.50
2022-12-01T14:19:31.363Z,26.30
2022-12-01T14:22:01.259Z,27.43
2022-12-01T14:24:40.533Z,29.00
2022-12-01T14:27:11.784Z,26.20
2022-12-01T14:29:44.460Z,28.77
2022-12-01T14:32:24.074Z,29.17
2022-12-01T14:34:59.020Z,31.00
2022-12-01T14:37:36.367Z,29.30
2022-12-01T14:40:09.745Z,28.07
2022-12-01T14:42:59.320Z,28.17
2022-12-01T14:45:34.975Z,29.20
2022-12-01T14:48:08.821Z,27.50
2022-12-01T14:50:46.426Z,28.97
2022-12-01T14:53:22.541Z,27.70
2022-12-01T14:55:57.464Z,31.67
2022-12-01T14:58:28.608Z,33.20
2022-12-01T15:01:03.768Z,31.47
2022-12-01T15:03:37.500Z,34.40
2022-12-01T15:06:06.648Z,33.17
2022-12-01T15:08:43.617Z,31.87
2022-12-01T15:11:23.428Z,30.70
2022-12-01T15:13:54.012Z,30.13
2022-12-01T15:16:25.993Z,32.27
2022-12-01T15:18:57.652Z,29.50
2022-12-01T15:21:28.377Z,30.60
2022-12-01T15:23:59.096Z,32.50
2022-12-01T15:26:31.209Z,31.93
2022-12-01T15:29:14.406Z,32.00
2022-12-01T15:31:46.640Z,32.43
2022-12-01T15:34:18.334Z,32.20
2022-12-01T15:36:48.457Z,32.73
2022-12-01T15:39:19.820Z,32.23
2022-12-01T15:41:54.196Z,31.10
2022-12-01T15:44:31.898Z,32.73
2022-12-01T15:47:31.369Z,31.73
2022-12-01T15:49:59.701Z,31.80
2022-12-01T15:52:29.245Z,32.03
2022-12-01T15:55:01.512Z,32.30
2022-12-01T15:57:30.692Z,34.17
2022-12-01T15:59:59.295Z,32.40
2022-12-01T16:02:32.190Z,29.93
2022-12-01T16:05:03.556Z,30.30
2022-12-01T16:08:04.944Z,31.23
2022-12-01T16:10:32.069Z,30.23
2022-12-01T16:13:39.976Z,29.80
2022-12-01T16:16:42.805Z,31.87
2022-12-01T16:19:31.491Z,34.47
2022-12-01T16:22:05.171Z,30.93
2022-12-01T16:24:36.207Z,31.47
2022-12-01T16:27:08.729Z,31.97
2022-12-01T16:29:48.545Z,35.20
2022-12-01T16:32:21.348Z,32.33
2022-12-01T16:34:53.607Z,32.10
2022-12-01T16:37:22.667Z,31.60
2022-12-01T16:39:51.255Z,31.37
2022-12-01T16:42:21.913Z,32.37
2022-12-01T16:44:51.149Z,27.97
2022-12-01T16:47:21.895Z,29.13
2022-12-01T16:49:50.600Z,29.93
2022-12-01T16:52:43.539Z,29.70
2022-12-01T16:55:21.987Z,33.67
2022-12-01T16:57:50.468Z,30.53
2022-12-01T17:00:19.494Z,30.33
2022-12-01T17:02:48.007Z,28.27
2022-12-01T17:05:17.050Z,32.03
2022-12-01T17:07:47.060Z,33.07
2022-12-01T17:10:16.466Z,31.27
2022-12-01T17:12:45.304Z,39.00
2022-12-01T17:15:13.985Z,30.00
2022-12-01T17:17:42.698Z,30.83
2022-12-01T17:20:11.878Z,30.23
2022-12-01T17:22:40.348Z,30.03
2022-12-01T17:25:10.972Z,29.00
2022-12-01T17:27:42.067Z,30.23
2022-12-01T17:30:12.112Z,29.70
2022-12-01T17:32:55.701Z,29.30
2022-12-01T17:35:24.354Z,29.23
2022-12-01T17:37:52.832Z,29.83
2022-12-01T17:40:22.706Z,28.27
2022-12-01T17:42:51.848Z,28.17
2022-12-01T17:45:20.430Z,28.50
2022-12-01T17:47:49.595Z,27.17
2022-12-01T17:50:18.087Z,29.47
2022-12-01T17:52:46.478Z,28.60
2022-12-01T17:55:14.920Z,28.73
2022-12-01T17:57:44.885Z,30.57
2022-12-01T18:00:14.682Z,29.23
2022-12-01T18:02:43.783Z,31.40
2022-12-01T18:05:12.349Z,30.13
2022-12-01T18:07:40.964Z,29.53
2022-12-01T18:10:10.391Z,27.80
2022-12-01T18:12:39.385Z,28.03
2022-12-01T18:15:10.464Z,30.33
2022-12-01T18:17:39.510Z,27.73
2022-12-01T18:20:09.795Z,31.17
2022-12-01T18:22:39.000Z,29.63
2022-12-01T18:25:07.953Z,29.30
2022-12-01T18:27:37.006Z,38.00
2022-12-01T18:30:06.808Z,33.77
2022-12-01T18:32:36.649Z,34.47
2022-12-01T18:35:05.405Z,32.50
2022-12-01T18:37:35.680Z,33.60
2022-12-01T18:40:04.856Z,33.67
2022-12-01T18:42:36.565Z,32.77
2022-12-01T18:45:08.489Z,33.07
2022-12-01T18:47:40.590Z,33.27
2022-12-01T18:50:10.030Z,31.40
2022-12-01T18:52:38.682Z,32.53
2022-12-01T18:55:07.457Z,31.40
2022-12-01T18:57:36.279Z,34.30
2022-12-01T19:00:06.029Z,35.83
2022-12-01T19:02:34.649Z,33.67
2022-12-01T19:05:04.540Z,32.10
2022-12-01T19:07:33.835Z,30.73
2022-12-01T19:10:02.428Z,29.90
2022-12-01T19:12:30.736Z,30.10
2022-12-01T19:15:04.892Z,31.57
2022-12-01T19:17:34.392Z,29.80
2022-12-01T19:20:05.429Z,26.57
2022-12-01T19:22:34.541Z,26.50
2022-12-01T19:25:02.948Z,26.30
2022-12-01T19:27:31.377Z,25.50
2022-12-01T19:29:59.563Z,24.90
2022-12-01T19:32:28.006Z,23.97
2022-12-01T19:34:56.483Z,24.37
2022-12-01T19:37:26.975Z,23.17
2022-12-01T19:39:55.228Z,24.40
2022-12-01T19:42:23.538Z,23.73
2022-12-01T19:44:52.172Z,25.23
2022-12-01T19:47:22.317Z,23.00
2022-12-01T19:49:51.012Z,23.67
2022-12-01T19:52:19.649Z,24.53
2022-12-01T19:54:49.646Z,25.20
2022-12-01T19:57:19.932Z,50.13
2022-12-01T19:59:48.613Z,30.13
2022-12-01T20:02:17.130Z,24.20
2022-12-01T20:04:45.722Z,25.43
2022-12-01T20:07:14.193Z,25.70
2022-12-01T20:09:49.612Z,25.20
2022-12-01T20:12:20.003Z,25.03
2022-12-01T20:14:49.085Z,22.93
2022-12-01T20:17:17.768Z,22.23
2022-12-01T20:19:48.557Z,22.33
2022-12-01T20:22:17.054Z,21.30
2022-12-01T20:24:45.842Z,19.87
2022-12-01T20:27:14.116Z,25.50
2022-12-01T20:29:43.649Z,20.57
2022-12-01T20:32:12.042Z,20.53
2022-12-01T20:34:40.419Z,20.63
2022-12-01T20:37:08.692Z,20.13
2022-12-01T20:39:38.331Z,20.40
2022-12-01T20:42:06.947Z,20.23
2022-12-01T20:44:35.369Z,19.37
2022-12-01T20:47:05.232Z,18.93
2022-12-01T20:49:34.128Z,20.17
2022-12-01T20:52:02.344Z,20.73
2022-12-01T20:54:31.438Z,19.97
2022-12-01T20:57:00.225Z,19.53
2022-12-01T20:59:29.844Z,19.70
2022-12-01T21:01:58.829Z,19.27
2022-12-01T21:04:28.514Z,19.27
2022-12-01T21:06:58.365Z,20.03
2022-12-01T21:09:27.217Z,19.30
2022-12-01T21:12:16.545Z,18.67
2022-12-01T21:14:48.742Z,19.90
2022-12-01T21:17:26.669Z,19.77
2022-12-01T21:20:05.700Z,19.60
2022-12-01T21:22:34.932Z,19.10
2022-12-01T21:25:11.290Z,18.80
2022-12-01T21:27:39.505Z,19.43
2022-12-01T21:30:17.189Z,19.67
2022-12-01T21:32:46.622Z,20.93
2022-12-01T21:35:19.495Z,19.03
2022-12-01T21:37:48.487Z,18.80
2022-12-01T21:40:21.628Z,18.83
2022-12-01T21:42:50.285Z,19.13
2022-12-01T21:45:27.268Z,20.30
2022-12-01T21:48:02.282Z,22.13
2022-12-01T21:50:32.786Z,20.80
2022-12-01T21:53:01.247Z,20.60
2022-12-01T21:55:39.397Z,20.47
2022-12-01T21:58:34.427Z,19.50
2022-12-01T22:01:03.627Z,20.47
2022-12-01T22:03:34.386Z,19.67
2022-12-01T22:06:31.766Z,19.17
2022-12-01T22:09:02.399Z,19.77
2022-12-01T22:11:32.357Z,21.20
2022-12-01T22:14:11.800Z,20.53
2022-12-01T22:16:43.385Z,21.37
2022-12-01T22:19:25.917Z,20.77
2022-12-01T22:22:01.721Z,21.10
2022-12-01T22:24:41.403Z,22.10
2022-12-01T22:27:32.452Z,21.77
2022-12-01T22:30:03.368Z,22.17
2022-12-01T22:32:41.308Z,23.20
2022-12-01T22:35:25.144Z,21.47
2022-12-01T22:37:56.995Z,22.57
2022-12-01T22:40:37.577Z,21.60
2022-12-01T22:43:26.617Z,21.33
2022-12-01T22:46:03.910Z,22.30
2022-12-01T22:48:36.470Z,23.27
2022-12-01T22:51:21.980Z,22.07
2022-12-01T22:53:55.836Z,23.27
2022-12-01T22:56:30.026Z,22.10
2022-12-01T22:58:58.488Z,21.53
2022-12-01T23:01:31.106Z,23.13
2022-12-01T23:04:22.581Z,25.20
2022-12-01T23:07:00.326Z,23.20
2022-12-01T23:09:34.031Z,23.20
2022-12-01T23:12:16.876Z,22.03
2022-12-01T23:14:49.416Z,22.63
2022-12-01T23:17:21.803Z,24.27
2022-12-01T23:19:52.513Z,22.30
2022-12-01T23:22:21.627Z,22.33
2022-12-01T23:24:51.649Z,23.40
2022-12-01T23:27:20.263Z,23.53
2022-12-01T23:29:48.723Z,22.93
2022-12-01T23:32:18.577Z,23.03
2022-12-01T23:34:47.019Z,23.67
2022-12-01T23:37:33.358Z,22.83
2022-12-01T23:40:06.727Z,22.57
2022-12-01T23:42:35.229Z,23.10
2022-12-01T23:45:34.155Z,23.77
2022-12-01T23:48:06.723Z,22.23
2022-12-01T23:50:38.005Z,25.13
2022-12-01T23:53:06.623Z,24.77
2022-12-01T23:55:36.614Z,24.17
2022-12-01T23:58:05.830Z,24.43
